Terminal Aerodrome Forecast
Issued by NWS El Paso, TX

Home | Current Version | Previous Version | Text Only | Print | Product List | Glossary On
Versions: 1 2 3 4 5 6 7 8 9 10 11 12 13 14 15 16
000
FTUS44 KEPZ 010600 RRA
TAFELP
TAF
KELP 010552Z 0106/0206 10011KT P6SM VCSH SCT060 BKN120 OVC220
      TEMPO 0106/0108 VRB15G25KT 6SM -TSRA BKN050CB
     FM010800 11008KT 6SM -SHRA SCT025 BKN050 OVC150
     FM011200 11007KT P6SM SCT015 BKN050 OVC220
     FM011900 29007KT P6SM SCT050 SCT120 BKN220
     FM020200 04008KT P6SM VCSH BKN050 BKN110 OVC220=

USA.gov is the U.S. government's official web portal to all federal, state and local government web resources and services.